Time;durP1;ratioP1;P1;durP2;ratioP2;P2;SDS_P1;SDS_P2;PMS_P1;PMS_P2;Temp;Humidity;BMP_temperature;BMP_pressure;BME280_temperature;BME280_humidity;BME280_pressure;Samples;Min_cycle;Max_cycle;Signal;HPM_P1;HPM_P2
2023/05/12 00:01:14;;;;;;;2.25;2.13;;;;;;;15.40;74.41;100859.09;5214280;28;20124;-87
2023/05/12 00:04:14;;;;;;;1.40;1.35;;;;;;;15.36;74.16;100854.00;5212835;28;20037;-86
2023/05/12 00:07:05;;;;;;;1.77;1.67;;;;;;;15.34;74.20;100854.06;5207944;28;20041;-86
2023/05/12 00:09:56;;;;;;;2.10;1.55;;;;;;;15.18;76.46;100853.03;5194265;28;20037;-87
2023/05/12 00:12:47;;;;;;;1.08;1.08;;;;;;;15.32;75.08;100847.13;5183062;28;20036;-87
2023/05/12 00:15:38;;;;;;;0.77;0.73;;;;;;;15.37;74.01;100843.34;5188554;28;20071;-87
2023/05/12 00:18:29;;;;;;;2.60;2.17;;;;;;;15.37;74.29;100840.72;5190608;28;20041;-87
2023/05/12 00:21:20;;;;;;;1.33;1.23;;;;;;;15.33;74.83;100831.19;5183230;28;20029;-86
2023/05/12 00:24:11;;;;;;;0.65;0.65;;;;;;;15.36;74.32;100836.34;5188899;28;20048;-86
2023/05/12 00:27:02;;;;;;;2.10;1.55;;;;;;;15.34;74.63;100832.91;5199124;28;20125;-86
2023/05/12 00:29:52;;;;;;;0.80;0.80;;;;;;;15.38;74.24;100829.22;5208719;28;20461;-86
2023/05/12 00:32:43;;;;;;;2.42;1.52;;;;;;;15.30;77.17;100828.69;5197356;28;20139;-87
2023/05/12 00:35:34;;;;;;;4.07;1.45;;;;;;;15.47;74.59;100832.34;5200507;28;20022;-86
2023/05/12 00:38:25;;;;;;;4.38;2.20;;;;;;;15.15;77.31;100824.94;5204529;28;20028;-86
2023/05/12 00:41:15;;;;;;;1.27;1.20;;;;;;;15.31;75.15;100827.78;5225093;28;20040;-86
2023/05/12 00:44:06;;;;;;;1.33;1.17;;;;;;;15.32;74.96;100825.97;5240084;28;20029;-86
2023/05/12 00:46:57;;;;;;;0.95;0.68;;;;;;;15.03;78.19;100828.16;5231710;28;20025;-86
2023/05/12 00:49:48;;;;;;;0.82;0.70;;;;;;;15.08;77.51;100827.00;5200700;28;20078;-86
2023/05/12 00:52:39;;;;;;;9.50;1.45;;;;;;;15.17;78.40;100824.88;5199768;28;20162;-85
2023/05/12 00:55:30;;;;;;;2.00;1.83;;;;;;;14.91;79.32;100818.97;5199968;28;20021;-86
2023/05/12 00:58:21;;;;;;;2.05;1.92;;;;;;;15.17;76.95;100817.81;5182792;28;20123;-86
2023/05/12 01:01:12;;;;;;;1.00;1.00;;;;;;;15.13;76.83;100823.31;5201300;28;20243;-85
2023/05/12 01:04:03;;;;;;;0.80;0.80;;;;;;;15.13;76.62;100818.88;5200688;28;20035;-85
2023/05/12 01:07:02;;;;;;;0.50;0.50;;;;;;;15.24;74.93;100818.41;5201016;28;20910;-86
2023/05/12 01:09:55;;;;;;;1.80;1.33;;;;;;;15.17;77.95;100814.31;5183603;28;20587;-86
2023/05/12 01:12:46;;;;;;;1.17;1.08;;;;;;;14.97;79.81;100818.69;5188491;28;20032;-87
2023/05/12 01:15:41;;;;;;;2.90;1.25;;;;;;;15.05;78.11;100815.72;5202940;28;20045;-86
2023/05/12 01:18:36;;;;;;;2.05;0.88;;;;;;;15.12;76.51;100811.91;5214736;28;20108;-86
2023/05/12 01:21:27;;;;;;;1.25;1.15;;;;;;;15.16;76.38;100812.63;5208110;28;20104;-86
2023/05/12 01:24:21;;;;;;;0.40;0.40;;;;;;;15.16;77.17;100812.63;5216353;28;20465;-87
2023/05/12 01:27:16;;;;;;;0.65;0.65;;;;;;;15.21;75.67;100807.97;5221314;28;20032;-87
2023/05/12 01:30:08;;;;;;;0.75;0.75;;;;;;;15.09;76.38;100807.56;5227851;28;20037;-87
2023/05/12 01:32:59;;;;;;;0.85;0.85;;;;;;;15.04;78.64;100804.28;5217119;28;20052;-86
2023/05/12 01:35:49;;;;;;;1.55;1.30;;;;;;;15.19;76.65;100801.88;5203442;28;20115;-85
2023/05/12 01:38:40;;;;;;;0.40;0.40;;;;;;;14.98;79.02;100804.56;5203430;28;20062;-86
2023/05/12 01:41:31;;;;;;;1.20;1.15;;;;;;;15.17;75.34;100803.72;5216927;28;20401;-85
2023/05/12 01:44:22;;;;;;;0.40;0.40;;;;;;;15.15;78.02;100805.59;5196544;28;20021;-86
2023/05/12 01:47:14;;;;;;;0.45;0.45;;;;;;;15.09;78.37;100807.56;5200406;28;20625;-87
2023/05/12 01:50:06;;;;;;;0.57;0.57;;;;;;;14.85;81.16;100803.38;5206727;28;20033;-84
2023/05/12 01:52:57;;;;;;;1.55;1.45;;;;;;;14.66;81.85;100793.63;5185577;28;20079;-85
2023/05/12 01:55:47;;;;;;;0.98;0.70;;;;;;;14.53;81.79;100800.31;5218647;28;20021;-87
2023/05/12 01:58:38;;;;;;;1.10;1.00;;;;;;;14.56;81.75;100793.13;5204142;28;20037;-86
2023/05/12 02:01:31;;;;;;;0.82;0.82;;;;;;;14.44;83.21;100789.22;5212322;28;20037;-85
2023/05/12 02:04:21;;;;;;;0.88;0.88;;;;;;;14.32;83.53;100782.69;5228206;28;20645;-87
2023/05/12 02:07:14;;;;;;;1.17;0.75;;;;;;;14.31;83.90;100780.94;5199043;28;20041;-86
2023/05/12 02:10:06;;;;;;;0.50;0.50;;;;;;;14.17;84.72;100781.53;5187670;28;20072;-85
2023/05/12 02:12:57;;;;;;;0.57;0.57;;;;;;;13.98;86.66;100781.41;5183482;28;20041;-86
2023/05/12 02:15:48;;;;;;;0.40;0.40;;;;;;;13.93;86.97;100771.97;5182930;28;20021;-85
2023/05/12 02:18:39;;;;;;;0.70;0.70;;;;;;;13.74;88.23;100756.03;5185647;28;20137;-85
2023/05/12 02:21:30;;;;;;;0.28;0.28;;;;;;;13.82;86.20;100728.44;5185405;28;20060;-85
2023/05/12 02:24:20;;;;;;;0.45;0.45;;;;;;;13.67;86.83;100706.19;5186260;28;20528;-86
2023/05/12 02:27:11;;;;;;;0.28;0.28;;;;;;;13.48;88.50;100698.16;5198976;28;20460;-86
2023/05/12 02:30:03;;;;;;;0.30;0.30;;;;;;;13.72;85.98;100715.69;5201522;28;20082;-85
2023/05/12 02:32:54;;;;;;;0.30;0.30;;;;;;;13.78;86.12;100732.09;5209095;28;20029;-86
2023/05/12 02:35:45;;;;;;;0.28;0.28;;;;;;;13.89;84.02;100736.94;5205307;28;20056;-85
2023/05/12 02:38:36;;;;;;;0.20;0.20;;;;;;;14.02;82.46;100745.22;5192092;28;20037;-86
2023/05/12 02:41:27;;;;;;;0.60;0.60;;;;;;;14.03;82.37;100746.09;5187201;28;20052;-87
2023/05/12 02:44:21;;;;;;;0.40;0.40;;;;;;;14.02;81.53;100750.50;5198661;28;20039;-87
2023/05/12 02:47:11;;;;;;;0.20;0.20;;;;;;;13.87;83.36;100749.38;5196403;28;20100;-86
2023/05/12 02:50:03;;;;;;;0.20;0.20;;;;;;;13.97;81.63;100755.94;5204455;28;20040;-85
2023/05/12 02:52:54;;;;;;;0.52;0.52;;;;;;;14.15;80.05;100756.13;5243812;28;20130;-87
2023/05/12 02:55:44;;;;;;;0.30;0.30;;;;;;;14.23;78.94;100763.72;5254991;28;20021;-86
2023/05/12 02:58:36;;;;;;;0.20;0.20;;;;;;;14.29;78.79;100771.38;5214127;28;20057;-88
2023/05/12 03:01:27;;;;;;;0.30;0.30;;;;;;;14.14;79.40;100771.13;5226172;28;20079;-87
2023/05/12 03:04:18;;;;;;;0.30;0.30;;;;;;;14.21;78.95;100768.22;5240650;28;20618;-87
2023/05/12 03:07:08;;;;;;;0.63;0.63;;;;;;;14.24;78.92;100761.03;5244110;28;20029;-86
2023/05/12 03:10:00;;;;;;;2.95;0.40;;;;;;;14.26;78.06;100768.88;5239986;28;20045;-86
2023/05/12 03:12:51;;;;;;;0.30;0.30;;;;;;;14.32;77.62;100779.19;5227443;28;20021;-87
2023/05/12 03:15:41;;;;;;;0.70;0.47;;;;;;;14.28;78.01;100769.66;5229006;28;20031;-87
2023/05/12 03:18:32;;;;;;;0.30;0.30;;;;;;;14.35;77.29;100772.91;5243118;28;20081;-87
2023/05/12 03:21:23;;;;;;;0.52;0.52;;;;;;;14.39;77.86;100767.44;5235216;28;20084;-87
2023/05/12 03:24:14;;;;;;;0.22;0.22;;;;;;;14.11;79.78;100768.59;5216235;28;20037;-86
2023/05/12 03:27:05;;;;;;;0.20;0.20;;;;;;;14.31;77.83;100772.19;5212096;28;20508;-86
2023/05/12 03:29:56;;;;;;;0.40;0.40;;;;;;;14.31;77.15;100767.75;5213785;28;20033;-87
2023/05/12 03:32:47;;;;;;;0.20;0.20;;;;;;;14.38;76.64;100768.38;5213375;28;20041;-85
2023/05/12 03:35:38;;;;;;;0.50;0.50;;;;;;;14.42;76.63;100769.09;5219250;28;20029;-86
2023/05/12 03:38:28;;;;;;;0.30;0.30;;;;;;;14.39;76.54;100766.56;5199361;28;20031;-86
2023/05/12 03:41:20;;;;;;;0.30;0.30;;;;;;;14.40;76.43;100761.25;5199983;28;20439;-87
2023/05/12 03:44:11;;;;;;;0.22;0.22;;;;;;;14.41;76.24;100773.53;5206415;28;20025;-86
2023/05/12 03:47:02;;;;;;;0.40;0.40;;;;;;;14.45;75.95;100766.34;5202652;28;20087;-86
2023/05/12 03:49:53;;;;;;;0.40;0.40;;;;;;;14.43;76.18;100776.94;5215620;28;20551;-86
2023/05/12 03:52:44;;;;;;;0.20;0.20;;;;;;;14.45;75.81;100774.25;5204574;28;20041;-85
2023/05/12 03:55:35;;;;;;;0.50;0.50;;;;;;;14.47;75.69;100769.75;5219356;28;20028;-86
2023/05/12 03:58:26;;;;;;;0.40;0.40;;;;;;;14.48;75.64;100769.69;5226098;28;20075;-87
2023/05/12 04:01:16;;;;;;;0.20;0.20;;;;;;;14.48;76.15;100777.63;5200957;28;20076;-86
2023/05/12 04:04:07;;;;;;;0.20;0.20;;;;;;;14.48;75.55;100774.97;5211879;28;20067;-87
2023/05/12 04:06:58;;;;;;;0.20;0.20;;;;;;;14.48;75.52;100780.25;5219065;28;20059;-85
2023/05/12 04:09:49;;;;;;;0.20;0.20;;;;;;;14.52;75.45;100780.09;5190055;28;20470;-87
2023/05/12 04:12:40;;;;;;;0.30;0.30;;;;;;;14.51;75.55;100778.38;5218038;28;20500;-86
2023/05/12 04:15:31;;;;;;;0.28;0.28;;;;;;;14.52;75.67;100785.38;5245929;28;20029;-88
2023/05/12 04:18:22;;;;;;;0.30;0.30;;;;;;;14.49;75.60;100783.75;5240089;28;20033;-86
2023/05/12 04:21:12;;;;;;;0.30;0.30;;;;;;;14.44;76.42;100786.56;5217106;28;20040;-86
2023/05/12 04:24:03;;;;;;;0.38;0.38;;;;;;;14.49;75.55;100786.38;5219019;28;20029;-85
2023/05/12 04:26:56;;;;;;;0.30;0.30;;;;;;;14.52;75.80;100788.03;5231742;28;20025;-86
2023/05/12 04:29:47;;;;;;;0.28;0.28;;;;;;;14.29;77.90;100790.75;5230828;28;20534;-84
2023/05/12 04:32:37;;;;;;;0.30;0.30;;;;;;;14.47;75.91;100789.09;5206441;28;20124;-86
2023/05/12 04:35:28;;;;;;;0.30;0.30;;;;;;;14.54;75.66;100786.19;5222673;28;20029;-86
2023/05/12 04:38:19;;;;;;;0.38;0.38;;;;;;;14.51;75.76;100788.94;5205002;28;20596;-86
2023/05/12 04:41:10;;;;;;;0.38;0.38;;;;;;;14.53;75.79;100792.38;5202996;28;20259;-85
2023/05/12 04:44:00;;;;;;;0.43;0.43;;;;;;;14.52;75.87;100795.94;5205925;28;20021;-86
2023/05/12 04:46:54;;;;;;;0.20;0.20;;;;;;;14.52;75.61;100803.88;5214761;28;20240;-86
2023/05/12 04:49:45;;;;;;;0.20;0.20;;;;;;;14.41;77.19;100804.31;5209573;28;20603;-85
2023/05/12 04:52:37;;;;;;;0.38;0.38;;;;;;;14.40;77.64;100810.53;5216331;28;20110;-85
2023/05/12 04:55:27;;;;;;;0.20;0.20;;;;;;;14.42;78.06;100812.16;5207590;28;20037;-85
2023/05/12 04:58:18;;;;;;;0.20;0.20;;;;;;;14.43;77.18;100819.16;5205599;28;20043;-86
2023/05/12 05:01:11;;;;;;;0.20;0.20;;;;;;;14.41;77.77;100822.81;5212385;28;20043;-85
2023/05/12 05:04:01;;;;;;;0.22;0.22;;;;;;;14.38;77.63;100825.59;5208594;28;20033;-85
2023/05/12 05:06:54;;;;;;;0.70;0.70;;;;;;;14.49;76.54;100828.63;5199253;28;20453;-85
2023/05/12 05:09:45;;;;;;;0.65;0.60;;;;;;;14.17;80.01;100839.56;5210169;28;20472;-85
2023/05/12 05:12:35;;;;;;;0.30;0.30;;;;;;;14.40;77.56;100836.91;5226826;28;20104;-86
2023/05/12 05:15:26;;;;;;;0.40;0.40;;;;;;;14.45;77.40;100838.44;5199723;28;20025;-86
2023/05/12 05:18:17;;;;;;;0.60;0.60;;;;;;;14.48;78.01;100838.34;5205272;28;20068;-85
2023/05/12 05:21:08;;;;;;;0.20;0.20;;;;;;;14.31;79.21;100844.28;5229372;28;20432;-86
2023/05/12 05:23:59;;;;;;;0.20;0.20;;;;;;;14.50;77.95;100840.06;5198745;28;20075;-86
2023/05/12 05:26:50;;;;;;;0.30;0.30;;;;;;;14.48;77.33;100848.91;5196936;28;20057;-86
2023/05/12 05:29:40;;;;;;;0.40;0.40;;;;;;;14.55;77.12;100849.47;5174578;28;20064;-86
2023/05/12 05:32:33;;;;;;;0.80;0.80;;;;;;;14.55;77.04;100853.91;5207837;28;20436;-86
2023/05/12 05:35:26;;;;;;;0.40;0.40;;;;;;;14.48;78.89;100863.88;5211393;28;20032;-86
2023/05/12 05:38:17;;;;;;;0.65;0.52;;;;;;;14.41;80.30;100862.41;5224966;28;21016;-86
2023/05/12 05:41:08;;;;;;;0.65;0.65;;;;;;;14.23;82.23;100864.88;5213329;28;20056;-86
2023/05/12 05:43:59;;;;;;;0.20;0.20;;;;;;;14.05;84.07;100865.63;5230366;28;20045;-86
2023/05/12 05:46:49;;;;;;;0.80;0.80;;;;;;;14.33;80.58;100870.66;5218189;28;20122;-85
2023/05/12 05:49:41;;;;;;;0.32;0.32;;;;;;;14.39;80.94;100873.03;5220615;28;20599;-86
2023/05/12 05:52:31;;;;;;;0.68;0.68;;;;;;;14.53;79.46;100876.88;5216727;28;20029;-85
2023/05/12 05:55:22;;;;;;;4.47;1.20;;;;;;;14.54;79.33;100878.59;5199892;28;20051;-84
2023/05/12 05:58:14;;;;;;;0.40;0.40;;;;;;;14.43;81.28;100881.69;5208033;28;20064;-84
2023/05/12 06:01:05;;;;;;;0.90;0.70;;;;;;;14.60;79.32;100889.78;5210255;28;20495;-84
2023/05/12 06:03:56;;;;;;;3.40;1.10;;;;;;;14.56;79.97;100882.88;5224953;28;20067;-85
2023/05/12 06:06:47;;;;;;;0.95;0.95;;;;;;;14.58;79.82;100891.63;5240973;28;20037;-85
2023/05/12 06:09:37;;;;;;;0.20;0.20;;;;;;;14.42;79.79;100893.16;5229775;28;20399;-84
2023/05/12 06:12:28;;;;;;;0.32;0.32;;;;;;;14.67;78.27;100900.09;5195768;28;20029;-84
2023/05/12 06:15:19;;;;;;;0.70;0.70;;;;;;;14.66;78.17;100907.19;5211077;28;20025;-84
2023/05/12 06:18:10;;;;;;;0.57;0.57;;;;;;;14.76;78.15;100908.50;5207429;28;20140;-85
2023/05/12 06:21:01;;;;;;;0.70;0.70;;;;;;;14.57;78.92;100908.38;5211129;28;20028;-83
2023/05/12 06:23:53;;;;;;;0.30;0.30;;;;;;;14.71;78.51;100912.28;5215867;28;20071;-84
2023/05/12 06:26:44;;;;;;;0.63;0.63;;;;;;;14.82;78.33;100914.47;5213420;28;20116;-85
2023/05/12 06:29:35;;;;;;;0.65;0.65;;;;;;;14.86;77.95;100916.91;5215039;28;20033;-83
2023/05/12 06:32:25;;;;;;;0.47;0.47;;;;;;;14.63;79.62;100918.69;5208709;28;20036;-84
2023/05/12 06:35:16;;;;;;;0.65;0.60;;;;;;;14.70;78.99;100927.25;5206746;28;20036;-84
2023/05/12 06:38:07;;;;;;;0.32;0.32;;;;;;;14.59;79.47;100925.03;5213147;28;20159;-84
2023/05/12 06:40:58;;;;;;;0.40;0.40;;;;;;;14.71;78.33;100928.13;5213168;28;20086;-84
2023/05/12 06:43:48;;;;;;;0.40;0.40;;;;;;;14.79;78.31;100926.88;5212745;28;20577;-84
2023/05/12 06:46:39;;;;;;;0.45;0.40;;;;;;;14.88;78.12;100930.91;5204308;28;20037;-85
2023/05/12 06:49:34;;;;;;;0.30;0.30;;;;;;;14.90;77.23;100938.78;5211261;28;20048;-85
2023/05/12 06:52:25;;;;;;;0.47;0.47;;;;;;;14.55;77.94;100933.97;5197017;28;20408;-85
2023/05/12 06:55:18;;;;;;;0.40;0.40;;;;;;;14.67;77.68;100937.94;5213761;28;20487;-85
2023/05/12 06:58:09;;;;;;;0.22;0.22;;;;;;;14.77;77.35;100941.91;5207344;28;20090;-84
2023/05/12 07:01:00;;;;;;;0.50;0.50;;;;;;;14.70;77.67;100940.47;5201145;28;20647;-86
2023/05/12 07:03:50;;;;;;;0.40;0.40;;;;;;;14.91;76.60;100948.44;5195715;28;20045;-85
2023/05/12 07:06:41;;;;;;;0.30;0.30;;;;;;;14.40;78.95;100951.31;5218043;28;20078;-84
2023/05/12 07:09:32;;;;;;;0.43;0.43;;;;;;;14.49;78.93;100955.34;5231414;28;20044;-85
2023/05/12 07:12:23;;;;;;;0.30;0.30;;;;;;;14.58;77.94;100949.69;5233430;28;20097;-86
2023/05/12 07:15:14;;;;;;;0.20;0.20;;;;;;;14.55;79.07;100956.88;5219941;28;20297;-85
2023/05/12 07:18:05;;;;;;;0.30;0.30;;;;;;;14.82;77.83;100952.28;5222271;28;20033;-85
2023/05/12 07:20:56;;;;;;;0.75;0.60;;;;;;;14.99;76.75;100964.81;5208660;28;20515;-85
2023/05/12 07:23:47;;;;;;;0.30;0.30;;;;;;;14.97;77.58;100956.09;5225177;28;20055;-85
2023/05/12 07:26:37;;;;;;;0.40;0.40;;;;;;;14.78;76.94;100956.84;5226058;28;20059;-85
2023/05/12 07:29:28;;;;;;;0.43;0.43;;;;;;;15.05;77.14;100967.19;5219134;28;20056;-84
2023/05/12 07:32:19;;;;;;;0.52;0.52;;;;;;;15.06;76.48;100958.34;5223812;28;20037;-85
2023/05/12 07:35:10;;;;;;;1.60;0.68;;;;;;;14.90;76.79;100966.03;5231771;28;20153;-84
2023/05/12 07:38:02;;;;;;;0.40;0.40;;;;;;;15.10;76.82;100967.84;5215904;28;20069;-85
2023/05/12 07:45:05;;;;;;;0.40;0.40;;;;;;;15.41;75.26;100963.03;5218272;28;20059;-83
2023/05/12 07:47:56;;;;;;;0.47;0.47;;;;;;;15.40;75.32;100970.13;5229047;28;20187;-86
2023/05/12 07:50:47;;;;;;;0.40;0.40;;;;;;;15.50;74.97;100970.56;5212847;28;20051;-86
2023/05/12 07:53:37;;;;;;;0.63;0.63;;;;;;;15.43;74.74;100980.56;5226576;28;20098;-84
2023/05/12 07:56:28;;;;;;;0.38;0.38;;;;;;;15.48;73.71;100979.50;5218627;28;20040;-85
2023/05/12 07:59:19;;;;;;;0.40;0.40;;;;;;;15.47;74.57;100983.06;5216624;28;20035;-85
2023/05/12 08:02:09;;;;;;;1.02;0.45;;;;;;;15.51;73.92;100982.88;5214670;28;20100;-85
2023/05/12 08:05:00;;;;;;;0.43;0.43;;;;;;;15.57;74.33;100981.75;5201383;28;20057;-84
2023/05/12 08:07:51;;;;;;;0.32;0.32;;;;;;;15.44;73.39;100981.44;5210596;28;20028;-85
2023/05/12 08:10:43;;;;;;;0.47;0.47;;;;;;;15.62;73.60;100987.69;5187816;28;20072;-85
2023/05/12 08:13:35;;;;;;;1.27;1.15;;;;;;;15.67;73.45;100984.84;5201920;28;20631;-85
2023/05/12 08:16:26;;;;;;;0.50;0.50;;;;;;;15.69;72.93;100990.94;5211129;28;20128;-85
2023/05/12 08:19:17;;;;;;;4.50;1.17;;;;;;;15.49;73.35;100990.00;5219979;28;20518;-85
2023/05/12 08:22:08;;;;;;;0.45;0.45;;;;;;;15.54;73.15;100997.75;5214755;28;20282;-85
2023/05/12 08:24:58;;;;;;;0.35;0.35;;;;;;;15.68;72.94;101000.63;5220243;28;20041;-84
2023/05/12 08:27:49;;;;;;;0.40;0.40;;;;;;;15.81;72.49;101000.09;5215010;28;20036;-84
2023/05/12 08:30:41;;;;;;;0.30;0.30;;;;;;;15.77;72.28;100993.22;5236927;28;20029;-84
2023/05/12 08:33:35;;;;;;;0.75;0.75;;;;;;;15.79;72.86;101005.44;5228364;28;20551;-84
2023/05/12 08:36:25;;;;;;;0.40;0.40;;;;;;;15.84;72.88;101008.81;5235282;28;20035;-85
2023/05/12 08:39:16;;;;;;;0.63;0.63;;;;;;;15.97;71.85;101011.75;5239412;28;20017;-83
2023/05/12 08:42:22;;;;;;;1.20;1.05;;;;;;;15.87;71.66;101013.94;5237722;28;20357;-84
2023/05/12 08:45:13;;;;;;;0.40;0.40;;;;;;;15.89;71.54;101013.88;5228532;28;20044;-85
2023/05/12 08:48:07;;;;;;;0.20;0.20;;;;;;;15.93;71.81;101023.41;5216729;28;20423;-84
2023/05/12 08:50:59;;;;;;;0.30;0.30;;;;;;;15.96;71.95;101020.63;5215274;28;20216;-83
2023/05/12 08:53:54;;;;;;;0.50;0.50;;;;;;;15.85;71.19;101018.47;5196566;28;20040;-84
2023/05/12 08:56:45;;;;;;;0.20;0.20;;;;;;;15.94;70.99;101021.63;5215280;28;20036;-84
2023/05/12 08:59:38;;;;;;;0.20;0.20;;;;;;;16.07;71.00;101027.22;5218175;28;20032;-84
2023/05/12 09:02:30;;;;;;;0.50;0.50;;;;;;;16.12;70.20;101027.88;5210434;28;20029;-83
2023/05/12 09:05:22;;;;;;;0.30;0.30;;;;;;;16.13;70.44;101027.78;5211977;28;20056;-82
2023/05/12 09:08:12;;;;;;;0.40;0.40;;;;;;;16.19;70.41;101031.94;5198601;28;20045;-83
2023/05/12 09:11:03;;;;;;;0.20;0.20;;;;;;;15.97;69.02;101032.94;5216813;28;20044;-82
2023/05/12 09:14:01;;;;;;;0.22;0.22;;;;;;;16.14;69.66;101033.97;5201343;28;20050;-84
2023/05/12 09:17:00;;;;;;;0.20;0.20;;;;;;;16.23;70.05;101035.31;5215062;28;20094;-84
2023/05/12 09:19:50;;;;;;;0.40;0.40;;;;;;;16.21;68.53;101030.94;5209939;28;20056;-84
2023/05/12 09:22:41;;;;;;;0.40;0.40;;;;;;;16.34;69.03;101039.19;5209232;28;20092;-85
2023/05/12 09:25:32;;;;;;;0.35;0.35;;;;;;;16.45;69.09;101030.72;5240472;28;20028;-85
2023/05/12 09:28:23;;;;;;;0.35;0.35;;;;;;;16.52;68.65;101033.97;5198933;28;20119;-85
2023/05/12 09:31:18;;;;;;;0.30;0.30;;;;;;;16.45;68.82;101038.66;5200945;28;20033;-85
2023/05/12 09:34:09;;;;;;;0.20;0.20;;;;;;;16.55;69.04;101039.13;5214977;28;20032;-85
2023/05/12 09:37:02;;;;;;;0.20;0.20;;;;;;;16.46;68.22;101042.19;5220905;28;20172;-87
2023/05/12 09:40:05;;;;;;;0.52;0.50;;;;;;;16.67;66.94;101049.13;5217844;28;20032;-85
2023/05/12 09:42:56;;;;;;;1.98;0.28;;;;;;;16.51;67.37;101042.81;5216356;28;20112;-86
2023/05/12 09:45:49;;;;;;;0.30;0.30;;;;;;;16.60;66.49;101041.56;5224918;28;20036;-86
2023/05/12 09:48:40;;;;;;;0.30;0.30;;;;;;;16.70;66.60;101044.63;5214305;28;20046;-85
2023/05/12 09:51:31;;;;;;;0.22;0.22;;;;;;;16.74;66.61;101044.41;5205959;28;20405;-85
2023/05/12 09:54:30;;;;;;;0.20;0.20;;;;;;;16.73;67.06;101052.44;5216491;28;20048;-88
2023/05/12 09:57:24;;;;;;;0.35;0.35;;;;;;;16.68;67.15;101057.94;5198267;28;20036;-83
2023/05/12 10:00:17;;;;;;;0.20;0.20;;;;;;;16.78;66.73;101053.06;5226303;28;20029;-83
2023/05/12 10:03:12;;;;;;;0.28;0.28;;;;;;;16.81;67.42;101058.22;5193896;28;20061;-84
2023/05/12 10:06:05;;;;;;;0.30;0.30;;;;;;;16.92;67.44;101060.34;5213122;28;20032;-84
2023/05/12 10:09:17;;;;;;;0.22;0.22;;;;;;;16.88;66.89;101056.13;5200316;28;20040;-83
2023/05/12 10:12:09;;;;;;;0.45;0.45;;;;;;;17.03;66.82;101055.41;5217390;28;20041;-84
2023/05/12 10:15:01;;;;;;;0.30;0.30;;;;;;;17.22;67.08;101057.16;5206863;28;20079;-84
2023/05/12 10:17:54;;;;;;;0.45;0.45;;;;;;;17.19;64.54;101052.88;5187206;28;20930;-84
2023/05/12 10:20:46;;;;;;;0.30;0.30;;;;;;;17.32;65.99;101055.75;5226597;28;20064;-84
2023/05/12 10:23:40;;;;;;;0.38;0.38;;;;;;;17.25;66.27;101057.84;5214191;28;20032;-84
2023/05/12 10:26:31;;;;;;;0.20;0.20;;;;;;;17.26;65.39;101056.91;5215800;28;20037;-86
2023/05/12 10:29:28;;;;;;;0.30;0.30;;;;;;;17.21;65.62;101047.47;5216292;28;20033;-84
2023/05/12 10:32:19;;;;;;;1.65;0.50;;;;;;;17.31;66.00;101056.69;5194217;28;20041;-84
2023/05/12 10:35:11;;;;;;;0.30;0.30;;;;;;;17.26;64.91;101050.78;5198188;28;20094;-85
2023/05/12 10:38:12;;;;;;;0.53;0.53;;;;;;;17.40;65.86;101050.94;5198772;28;20088;-84
2023/05/12 10:41:05;;;;;;;0.50;0.50;;;;;;;17.51;64.16;101045.06;5215348;28;20066;-85
2023/05/12 10:43:56;;;;;;;0.30;0.30;;;;;;;17.54;64.22;101050.22;5205163;28;20017;-85
2023/05/12 10:46:56;;;;;;;0.55;0.55;;;;;;;17.61;64.31;101051.63;5207242;28;20276;-84
2023/05/12 10:49:54;;;;;;;0.50;0.50;;;;;;;17.57;64.44;101055.38;5200753;28;20054;-84
2023/05/12 10:52:54;;;;;;;0.20;0.20;;;;;;;17.57;64.09;101055.38;5209675;28;20033;-84
2023/05/12 10:55:50;;;;;;;0.88;0.88;;;;;;;17.77;63.86;101056.13;5235378;28;20056;-85
2023/05/12 10:59:05;;;;;;;0.20;0.20;;;;;;;17.60;60.87;101051.72;5209642;28;20045;-86
2023/05/12 11:02:04;;;;;;;0.30;0.30;;;;;;;17.81;61.99;101046.22;5219983;28;20033;-89
2023/05/12 11:04:59;;;;;;;0.40;0.40;;;;;;;17.92;61.10;101049.19;5208928;28;20021;-87
2023/05/12 11:07:50;;;;;;;0.60;0.60;;;;;;;18.02;62.74;101054.88;5246512;28;20046;-88
2023/05/12 11:10:41;;;;;;;0.40;0.40;;;;;;;18.16;61.47;101047.03;5222368;28;20088;-86
2023/05/12 11:13:34;;;;;;;0.20;0.20;;;;;;;18.19;62.22;101051.31;5209055;28;20036;-87
2023/05/12 11:16:25;;;;;;;0.60;0.60;;;;;;;17.92;59.33;101052.69;5218764;28;20135;-85
2023/05/12 11:19:17;;;;;;;0.30;0.30;;;;;;;18.18;60.21;101055.78;5219377;28;20029;-86
2023/05/12 11:22:10;;;;;;;0.85;0.85;;;;;;;17.99;58.04;101053.25;5217495;28;20029;-87
2023/05/12 11:25:19;;;;;;;0.43;0.43;;;;;;;18.23;60.02;101056.38;5240576;28;20037;-87
2023/05/12 11:28:10;;;;;;;0.85;0.82;;;;;;;18.34;60.50;101055.81;5244174;28;20045;-84
2023/05/12 11:31:01;;;;;;;0.28;0.28;;;;;;;18.51;60.90;101065.50;5211703;28;20032;-83
2023/05/12 11:34:02;;;;;;;2.40;1.48;;;;;;;18.68;60.27;101061.91;5200820;28;20033;-85
2023/05/12 11:36:55;;;;;;;0.40;0.40;;;;;;;18.71;59.96;101052.94;5232305;28;20025;-85
2023/05/12 11:39:45;;;;;;;0.60;0.60;;;;;;;18.78;59.38;101058.72;5215413;28;20043;-85
2023/05/12 11:42:38;;;;;;;0.20;0.20;;;;;;;19.01;60.14;101055.66;5201487;28;20033;-85
2023/05/12 11:45:29;;;;;;;0.43;0.43;;;;;;;19.12;57.96;101052.41;5216571;28;20022;-85
2023/05/12 11:48:21;;;;;;;0.20;0.20;;;;;;;19.19;57.97;101059.06;5203397;28;20029;-85
2023/05/12 11:51:13;;;;;;;0.75;0.75;;;;;;;19.27;57.39;101057.75;5215047;28;20049;-84
2023/05/12 11:54:05;;;;;;;0.20;0.20;;;;;;;19.34;55.86;101053.78;5208922;28;20099;-83
2023/05/12 11:56:57;;;;;;;1.08;0.40;;;;;;;19.41;58.27;101054.28;5218518;28;20626;-83
2023/05/12 11:59:56;;;;;;;0.57;0.57;;;;;;;19.56;56.46;101065.81;5229920;28;20087;-83
2023/05/12 12:02:47;;;;;;;0.40;0.40;;;;;;;19.60;57.32;101052.22;5243783;28;21029;-84
2023/05/12 12:05:44;;;;;;;0.32;0.32;;;;;;;19.70;57.22;101057.88;5210825;28;20063;-85
2023/05/12 12:08:37;;;;;;;1.42;0.82;;;;;;;19.84;56.91;101059.69;5227570;28;20108;-84
2023/05/12 12:11:29;;;;;;;;;;;;;;;19.94;54.76;101054.72;5216758;28;20044;-83
2023/05/12 12:14:20;;;;;;;0.60;0.60;;;;;;;20.06;55.25;101047.75;5201090;28;19927;-84
2023/05/12 12:17:11;;;;;;;0.20;0.20;;;;;;;20.22;55.15;101052.97;5204568;28;20046;-83
2023/05/12 12:20:02;;;;;;;0.38;0.38;;;;;;;20.22;51.93;101048.53;5203575;28;20021;-83
2023/05/12 12:22:53;;;;;;;0.20;0.20;;;;;;;20.47;53.48;101064.75;5210124;28;20033;-84
2023/05/12 12:25:43;;;;;;;0.40;0.40;;;;;;;20.34;53.32;101068.22;5220105;28;20031;-84
2023/05/12 12:28:34;;;;;;;0.52;0.52;;;;;;;20.52;50.59;101060.00;5219974;28;20599;-85
2023/05/12 12:31:25;;;;;;;0.63;0.63;;;;;;;20.35;51.92;101069.94;5216750;28;20044;-84
2023/05/12 12:34:16;;;;;;;0.63;0.63;;;;;;;20.35;53.01;101077.91;5206109;28;20676;-84
2023/05/12 12:37:06;;;;;;;0.45;0.45;;;;;;;20.30;54.26;101072.00;5219725;28;20068;-86
2023/05/12 12:39:57;;;;;;;0.43;0.40;;;;;;;20.21;53.56;101076.09;5243965;28;20025;-86
2023/05/12 12:42:48;;;;;;;0.20;0.20;;;;;;;20.07;51.13;101082.28;5219252;28;20060;-85
2023/05/12 12:45:39;;;;;;;2.25;0.80;;;;;;;19.82;52.90;101088.22;5224250;28;20056;-85
2023/05/12 12:48:30;;;;;;;0.30;0.30;;;;;;;19.79;53.33;101088.41;5211906;28;20064;-85
2023/05/12 12:51:21;;;;;;;0.40;0.40;;;;;;;19.73;54.16;101078.13;5228533;28;20070;-84
2023/05/12 12:54:13;;;;;;;0.90;0.63;;;;;;;19.78;54.79;101081.38;5226491;28;20089;-85
2023/05/12 12:57:04;;;;;;;0.30;0.30;;;;;;;19.78;55.70;101086.69;5233004;28;20067;-85
2023/05/12 12:59:55;;;;;;;0.40;0.40;;;;;;;19.72;56.26;101087.06;5210871;28;20020;-85
2023/05/12 13:02:45;;;;;;;0.20;0.20;;;;;;;19.69;56.90;101087.22;5238236;28;20158;-85
2023/05/12 13:05:36;;;;;;;0.25;0.25;;;;;;;19.66;56.52;101090.94;5223562;28;20048;-86
2023/05/12 13:08:27;;;;;;;0.43;0.43;;;;;;;19.37;56.23;101085.56;5224245;28;20408;-85
2023/05/12 13:11:18;;;;;;;0.55;0.55;;;;;;;19.28;56.82;101088.75;5217394;28;20647;-84
2023/05/12 13:14:09;;;;;;;0.47;0.47;;;;;;;19.37;57.48;101090.88;5220584;28;20092;-83
2023/05/12 13:16:59;;;;;;;0.52;0.52;;;;;;;19.30;57.42;101090.34;5213723;28;20087;-84
2023/05/12 13:19:51;;;;;;;0.30;0.30;;;;;;;19.21;57.12;101087.38;5227542;28;20033;-83
2023/05/12 13:22:43;;;;;;;1.45;0.40;;;;;;;19.23;58.21;101089.00;5199881;28;20104;-84